Portada
METAR-TAF:

METAR-TAF

Aeroports :

Sharurah, Aràbia Saudita

latitud: 17-28N, longitud: 047-07E, altitud: 720 m

Observació

L'informe es va fer fa 1 hora i 3 minuts, a les 17:00 UTC
Vent 5 kt del Est/Nord-Est
Temperatura 25°C
Humitat 30%
Pressió 1015 hPa
Visibilitat 10 km o més
sense núvols per sota de 1500 mi sense presència de cumulonimbus.

METAR: OESH 051700Z 06005KT CAVOK 25/06 Q1015 NOSIG

Hora: 21:03 (18:03 UTC)

Pronòstic

L'informe es va fer fa 7 hores i 3 minuts, a les 11:00 UTC
Pronòstic vàlid del 05 a les 12 UTC al 06 a les 18 UTC
Vent 12 kt del Est
Visibilitat: 7000 m
Evolucionant progressivament
l' 06 a les 04 UTC al 06 a les 06 UTC
Vent 10 kt del Sud

TAF: OESH 051100Z 0512/0618 10012KT 7000 NSC BECMG 0604/0606 17010KT

Observacions i pronòstics meteorològics de més de 4000 aeroports (METAR i TAF).

Les estacions disponibles són els punts grocs i vermells al mapa.

Posi el ratolí al punt desitjat per veure el nom de l'estació.

Feu clic per veure les observacions i els pronòstics meteorològics.

Per canviar el mapa: feu clic els botons verds amb una creu de color negre per apropar; al botó verd amb un guió per allunyar la imatge; o en les fletxes verdes per a mapes adjacents.


METAR-TAF: